createdAt,value
2022-12-23T00:00:45.321Z,82.82
2022-12-23T00:01:47.385Z,82.85
2022-12-23T00:02:50.479Z,82.06
2022-12-23T00:03:58.149Z,82.87
2022-12-23T00:05:01.173Z,82.24
2022-12-23T00:06:08.970Z,82.74
2022-12-23T00:07:11.869Z,82.11
2022-12-23T00:08:13.872Z,82.45
2022-12-23T00:09:17.066Z,82.41
2022-12-23T00:10:19.125Z,82.29
2022-12-23T00:11:22.131Z,82.28
2022-12-23T00:12:42.706Z,82.53
2022-12-23T00:14:03.929Z,82.12
2022-12-23T00:15:06.823Z,82.15
2022-12-23T00:16:11.760Z,83.10
2022-12-23T00:17:29.127Z,83.16
2022-12-23T00:18:32.574Z,82.31
2022-12-23T00:19:35.879Z,82.61
2022-12-23T00:20:38.802Z,82.25
2022-12-23T00:21:40.753Z,83.17
2022-12-23T00:23:01.304Z,82.69
2022-12-23T00:24:04.406Z,82.56
2022-12-23T00:25:06.735Z,83.25
2022-12-23T00:26:15.508Z,83.14
2022-12-23T00:27:17.413Z,83.19
2022-12-23T00:28:22.011Z,82.76
2022-12-23T00:29:24.073Z,83.78
2022-12-23T00:30:27.035Z,83.02
2022-12-23T00:31:30.017Z,83.07
2022-12-23T00:32:32.158Z,83.57
2022-12-23T00:33:36.896Z,82.64
2022-12-23T00:34:43.238Z,83.06
2022-12-23T00:35:47.202Z,83.44
2022-12-23T00:36:49.164Z,82.70
2022-12-23T00:37:52.100Z,83.04
2022-12-23T00:39:13.651Z,82.46
2022-12-23T00:40:34.637Z,82.73
2022-12-23T00:41:55.281Z,82.91
2022-12-23T00:42:58.505Z,82.86
2022-12-23T00:44:01.059Z,83.31
2022-12-23T00:45:15.689Z,83.51
2022-12-23T00:46:19.064Z,83.41
2022-12-23T00:47:39.893Z,83.57
2022-12-23T00:49:00.459Z,83.69
2022-12-23T00:50:04.997Z,83.19
2022-12-23T00:51:07.049Z,83.30
2022-12-23T00:52:13.268Z,83.28
2022-12-23T00:53:15.193Z,83.27
2022-12-23T00:54:18.848Z,83.25
2022-12-23T00:55:21.164Z,83.45
2022-12-23T00:56:24.186Z,83.65
2022-12-23T00:57:26.115Z,82.91
2022-12-23T00:58:29.026Z,82.88
2022-12-23T00:59:31.840Z,83.29
2022-12-23T01:00:52.149Z,83.60
2022-12-23T01:02:12.903Z,82.79
2022-12-23T01:03:34.408Z,82.99
2022-12-23T01:04:54.939Z,83.17
2022-12-23T01:06:00.313Z,83.25
2022-12-23T01:07:03.409Z,83.52
2022-12-23T01:08:08.297Z,83.58
2022-12-23T01:09:10.257Z,83.43
2022-12-23T01:10:13.278Z,83.24
2022-12-23T01:11:15.246Z,83.69
2022-12-23T01:12:18.266Z,82.92
2022-12-23T01:13:20.466Z,83.57
2022-12-23T01:14:23.958Z,82.76
2022-12-23T01:15:25.923Z,83.62
2022-12-23T01:16:28.897Z,83.19
2022-12-23T01:17:30.850Z,83.18
2022-12-23T01:18:35.731Z,83.08
2022-12-23T01:19:37.886Z,82.75
2022-12-23T01:20:41.483Z,82.83
2022-12-23T01:21:44.745Z,83.19
2022-12-23T01:22:47.739Z,82.63
2022-12-23T01:23:49.658Z,82.96
2022-12-23T01:24:52.689Z,83.74
2022-12-23T01:25:58.473Z,82.71
2022-12-23T01:27:01.532Z,82.82
2022-12-23T01:28:03.593Z,82.53
2022-12-23T01:29:06.639Z,82.91
2022-12-23T01:30:09.785Z,83.11
2022-12-23T01:31:12.846Z,83.08
2022-12-23T01:32:14.936Z,83.50
2022-12-23T01:33:18.006Z,83.37
2022-12-23T01:34:20.995Z,84.43
2022-12-23T01:35:22.921Z,83.62
2022-12-23T01:36:26.339Z,84.14
2022-12-23T01:37:30.621Z,84.52
2022-12-23T01:38:33.234Z,83.76
2022-12-23T01:39:36.220Z,84.71
2022-12-23T01:40:41.251Z,84.45
2022-12-23T01:42:01.572Z,84.50
2022-12-23T01:43:05.053Z,84.18
2022-12-23T01:44:40.559Z,84.13
2022-12-23T01:45:43.661Z,85.25
2022-12-23T01:46:45.872Z,85.18
2022-12-23T01:47:54.459Z,85.29
2022-12-23T01:48:57.284Z,84.85
2022-12-23T01:50:07.406Z,85.38
2022-12-23T01:51:14.723Z,85.48
2022-12-23T01:52:17.970Z,85.33
2022-12-23T01:53:25.520Z,84.90
2022-12-23T01:54:27.617Z,85.44
2022-12-23T01:55:34.096Z,85.79
2022-12-23T01:56:39.799Z,85.56
2022-12-23T01:57:44.800Z,85.64
2022-12-23T01:58:50.661Z,85.61
2022-12-23T02:00:11.471Z,85.11
2022-12-23T02:01:32.272Z,85.81
2022-12-23T02:03:10.270Z,85.52
2022-12-23T02:04:18.775Z,85.71
2022-12-23T02:05:22.379Z,85.83
2022-12-23T02:06:45.385Z,86.00
2022-12-23T02:08:06.278Z,86.27
2022-12-23T02:09:18.396Z,86.34
2022-12-23T02:10:25.787Z,85.47
2022-12-23T02:11:46.175Z,85.76
2022-12-23T02:13:01.953Z,86.63
2022-12-23T02:14:39.166Z,86.41
2022-12-23T02:16:06.476Z,86.81
2022-12-23T02:17:18.501Z,86.53
2022-12-23T02:18:32.853Z,86.42
2022-12-23T02:20:02.927Z,86.84
2022-12-23T02:21:32.870Z,86.18
2022-12-23T02:23:06.043Z,87.19
2022-12-23T02:24:47.798Z,86.86
2022-12-23T02:26:08.747Z,86.31
2022-12-23T02:27:17.863Z,87.06
2022-12-23T02:28:44.835Z,87.02
2022-12-23T02:30:27.235Z,86.94
2022-12-23T02:31:41.521Z,86.54
2022-12-23T02:32:54.895Z,87.40
2022-12-23T02:34:04.187Z,86.13
2022-12-23T02:35:13.687Z,86.70
2022-12-23T02:36:28.420Z,86.54
2022-12-23T02:37:38.214Z,85.92
2022-12-23T02:38:46.362Z,86.32
2022-12-23T02:39:56.924Z,87.48
2022-12-23T02:41:09.225Z,87.38
2022-12-23T02:42:17.164Z,86.64
2022-12-23T02:43:29.935Z,87.18
2022-12-23T02:44:39.860Z,86.83
2022-12-23T02:45:46.747Z,86.71
2022-12-23T02:46:53.688Z,86.08
2022-12-23T02:48:00.564Z,86.51
2022-12-23T02:49:08.470Z,86.52
2022-12-23T02:50:16.032Z,86.30
2022-12-23T02:51:20.828Z,86.41
2022-12-23T02:52:29.954Z,86.70
2022-12-23T02:53:37.466Z,86.60
2022-12-23T02:54:46.020Z,86.94
2022-12-23T02:55:50.486Z,87.68
2022-12-23T02:56:55.232Z,87.28
2022-12-23T02:58:00.484Z,87.54
2022-12-23T02:59:07.682Z,86.49
2022-12-23T03:00:11.105Z,87.64
2022-12-23T03:01:16.354Z,87.64
2022-12-23T03:02:20.048Z,87.51
2022-12-23T03:03:23.979Z,87.49
2022-12-23T03:04:26.169Z,88.05
2022-12-23T03:05:31.772Z,87.63
2022-12-23T03:06:39.426Z,87.54
2022-12-23T03:07:44.687Z,87.83
2022-12-23T03:08:47.593Z,87.36
2022-12-23T03:10:03.413Z,88.09
2022-12-23T03:11:07.593Z,88.08
2022-12-23T03:12:23.625Z,87.76
2022-12-23T03:13:38.364Z,87.38
2022-12-23T03:14:57.319Z,87.70
2022-12-23T03:16:08.041Z,87.17
2022-12-23T03:17:26.414Z,87.78
2022-12-23T03:18:39.920Z,88.17
2022-12-23T03:19:51.246Z,88.17
2022-12-23T03:20:59.605Z,88.55
2022-12-23T03:22:10.119Z,87.49
2022-12-23T03:23:24.543Z,87.47
2022-12-23T03:24:35.630Z,87.14
2022-12-23T03:25:44.534Z,87.56
2022-12-23T03:26:51.391Z,88.56
2022-12-23T03:28:02.284Z,88.10
2022-12-23T03:29:11.595Z,87.96
2022-12-23T03:30:17.660Z,88.07
2022-12-23T03:31:24.788Z,88.47
2022-12-23T03:32:33.303Z,87.25
2022-12-23T03:33:37.915Z,87.93
2022-12-23T03:34:46.189Z,87.56
2022-12-23T03:35:52.486Z,87.78
2022-12-23T03:36:58.356Z,87.48
2022-12-23T03:38:03.092Z,87.93
2022-12-23T03:39:10.045Z,88.20
2022-12-23T03:40:18.026Z,87.77
2022-12-23T03:41:25.826Z,87.33
2022-12-23T03:42:32.190Z,87.38
2022-12-23T03:43:39.863Z,87.99
2022-12-23T03:45:19.210Z,88.11
2022-12-23T03:46:17.860Z,88.30
2022-12-23T03:47:25.311Z,87.86
2022-12-23T03:48:35.308Z,87.55
2022-12-23T03:49:41.850Z,87.73
2022-12-23T03:50:47.390Z,88.04
2022-12-23T03:51:53.631Z,88.03
2022-12-23T03:52:59.748Z,87.58
2022-12-23T03:54:08.431Z,88.19
2022-12-23T03:55:17.468Z,88.36
2022-12-23T03:56:25.022Z,88.13
2022-12-23T03:57:35.543Z,87.27
2022-12-23T03:58:42.468Z,87.29
2022-12-23T03:59:50.456Z,87.53
2022-12-23T04:00:59.154Z,88.65
2022-12-23T04:02:08.507Z,88.28
2022-12-23T04:03:18.711Z,87.50
2022-12-23T04:04:28.047Z,87.60
2022-12-23T04:05:33.999Z,87.84
2022-12-23T04:06:44.322Z,87.76
2022-12-23T04:07:49.945Z,88.02
2022-12-23T04:08:54.789Z,88.16
2022-12-23T04:09:58.445Z,87.99
2022-12-23T04:11:02.270Z,89.14
2022-12-23T04:12:04.894Z,88.80
2022-12-23T04:13:28.502Z,88.78
2022-12-23T04:14:32.361Z,88.93
2022-12-23T04:15:39.431Z,88.31
2022-12-23T04:16:42.338Z,89.19
2022-12-23T04:17:44.243Z,88.52
2022-12-23T04:18:47.086Z,88.89
2022-12-23T04:19:52.737Z,88.64
2022-12-23T04:20:55.772Z,88.64
2022-12-23T04:21:57.791Z,89.52
2022-12-23T04:23:00.729Z,89.60
2022-12-23T04:24:02.718Z,88.58
2022-12-23T04:25:06.552Z,88.92
2022-12-23T04:26:08.479Z,88.39
2022-12-23T04:27:13.280Z,88.74
2022-12-23T04:28:15.551Z,89.26
2022-12-23T04:29:18.618Z,89.08
2022-12-23T04:30:20.716Z,88.95
2022-12-23T04:31:23.639Z,88.11
2022-12-23T04:32:26.714Z,88.30
2022-12-23T04:33:29.639Z,88.66
2022-12-23T04:34:31.503Z,88.78
2022-12-23T04:35:35.761Z,88.80
2022-12-23T04:36:38.647Z,88.07
2022-12-23T04:37:40.631Z,88.31
2022-12-23T04:38:43.584Z,88.59
2022-12-23T04:39:45.481Z,88.36
2022-12-23T04:40:48.626Z,88.38
2022-12-23T04:41:50.869Z,88.60
2022-12-23T04:42:53.721Z,87.94
2022-12-23T04:43:55.653Z,88.37
2022-12-23T04:44:58.814Z,88.78
2022-12-23T04:46:00.738Z,88.83
2022-12-23T04:47:03.651Z,89.12
2022-12-23T04:48:05.619Z,88.87
2022-12-23T04:49:08.520Z,88.01
2022-12-23T04:50:14.390Z,88.50
2022-12-23T04:51:18.647Z,88.75
2022-12-23T04:52:20.844Z,89.26
2022-12-23T04:53:23.773Z,88.95
2022-12-23T04:54:25.863Z,88.77
2022-12-23T04:55:28.744Z,89.29
2022-12-23T04:56:30.695Z,88.57
2022-12-23T04:57:33.641Z,88.50
2022-12-23T04:58:35.686Z,88.46
2022-12-23T04:59:38.615Z,88.34
2022-12-23T05:00:40.650Z,88.04
2022-12-23T05:01:43.696Z,88.06
2022-12-23T05:02:45.884Z,89.01
2022-12-23T05:03:48.881Z,88.25
2022-12-23T05:04:51.873Z,88.28
2022-12-23T05:05:53.801Z,89.10
2022-12-23T05:06:58.055Z,88.60
2022-12-23T05:08:03.728Z,88.64
2022-12-23T05:09:06.803Z,89.14
2022-12-23T05:10:10.177Z,89.08
2022-12-23T05:11:13.054Z,89.16
2022-12-23T05:12:14.948Z,90.19
2022-12-23T05:13:17.856Z,89.26
2022-12-23T05:14:19.827Z,89.28
2022-12-23T05:15:22.757Z,90.22
2022-12-23T05:16:24.996Z,90.16
2022-12-23T05:17:28.005Z,89.67
2022-12-23T05:18:30.063Z,89.97
2022-12-23T05:19:32.959Z,89.95
2022-12-23T05:20:34.869Z,90.12
2022-12-23T05:21:37.799Z,89.97
2022-12-23T05:22:41.049Z,90.09
2022-12-23T05:23:43.948Z,90.04
2022-12-23T05:24:45.795Z,89.34
2022-12-23T05:25:52.932Z,90.13
2022-12-23T05:26:59.766Z,89.52
2022-12-23T05:28:03.431Z,90.21
2022-12-23T05:29:06.137Z,89.51
2022-12-23T05:30:10.327Z,90.51
2022-12-23T05:31:13.454Z,90.09
2022-12-23T05:32:16.362Z,89.56
2022-12-23T05:33:18.376Z,90.34
2022-12-23T05:34:21.750Z,90.07
2022-12-23T05:35:24.900Z,90.13
2022-12-23T05:36:27.811Z,90.19
2022-12-23T05:37:29.732Z,89.23
2022-12-23T05:38:33.990Z,90.17
2022-12-23T05:39:35.904Z,90.10
2022-12-23T05:40:38.814Z,89.38
2022-12-23T05:41:40.909Z,89.64
2022-12-23T05:42:43.830Z,90.50
2022-12-23T05:43:45.712Z,90.38
2022-12-23T05:44:48.772Z,90.28
2022-12-23T05:45:51.455Z,90.21
2022-12-23T05:46:54.430Z,89.75
2022-12-23T05:47:56.377Z,90.07
2022-12-23T05:48:59.287Z,89.18
2022-12-23T05:50:01.420Z,90.24
2022-12-23T05:51:04.547Z,89.63
2022-12-23T05:52:06.618Z,89.68
2022-12-23T05:53:09.697Z,89.39
2022-12-23T05:54:13.145Z,88.90
2022-12-23T05:55:16.190Z,89.07
2022-12-23T05:56:19.126Z,88.93
2022-12-23T05:57:21.150Z,88.80
2022-12-23T05:58:24.329Z,89.59
2022-12-23T05:59:30.758Z,89.44
2022-12-23T06:00:34.533Z,89.30
2022-12-23T06:01:37.061Z,88.83
2022-12-23T06:02:40.382Z,88.96
2022-12-23T06:03:42.655Z,89.98
2022-12-23T06:04:45.767Z,89.06
2022-12-23T06:05:50.464Z,90.11
2022-12-23T06:06:53.461Z,88.82
2022-12-23T06:07:55.439Z,88.87
2022-12-23T06:08:59.984Z,89.25
2022-12-23T06:10:04.256Z,88.94
2022-12-23T06:11:07.407Z,89.23
2022-12-23T06:12:09.360Z,89.54
2022-12-23T06:13:12.408Z,89.71
2022-12-23T06:14:15.579Z,88.89
2022-12-23T06:15:17.752Z,88.93
2022-12-23T06:16:20.971Z,89.20
2022-12-23T06:17:23.107Z,89.15
2022-12-23T06:18:26.244Z,88.78
2022-12-23T06:19:28.195Z,89.51
2022-12-23T06:20:31.294Z,89.74
2022-12-23T06:21:33.298Z,89.39
2022-12-23T06:22:36.260Z,89.17
2022-12-23T06:23:39.185Z,89.06
2022-12-23T06:24:41.834Z,90.08
2022-12-23T06:25:46.297Z,89.78
2022-12-23T06:26:53.364Z,90.00
2022-12-23T06:27:59.595Z,89.31
2022-12-23T06:29:01.786Z,89.61
2022-12-23T06:30:05.143Z,89.78
2022-12-23T06:31:07.107Z,89.41
2022-12-23T06:32:10.353Z,89.79
2022-12-23T06:33:13.761Z,89.41
2022-12-23T06:34:15.995Z,90.08
2022-12-23T06:35:19.197Z,89.69
2022-12-23T06:36:21.131Z,89.19
2022-12-23T06:37:24.181Z,89.18
2022-12-23T06:38:26.401Z,89.05
2022-12-23T06:39:29.359Z,88.78
2022-12-23T06:40:31.447Z,89.27
2022-12-23T06:41:35.821Z,89.53
2022-12-23T06:42:38.387Z,89.37
2022-12-23T06:43:41.372Z,89.51
2022-12-23T06:44:43.306Z,89.31
2022-12-23T06:45:48.482Z,90.06
2022-12-23T06:46:50.533Z,89.99
2022-12-23T06:47:53.444Z,89.77
2022-12-23T06:48:55.360Z,89.18
2022-12-23T06:49:58.282Z,89.26
2022-12-23T06:51:00.377Z,90.07
2022-12-23T06:52:03.427Z,89.15
2022-12-23T06:53:05.415Z,89.13
2022-12-23T06:54:08.531Z,88.95
2022-12-23T06:55:10.384Z,89.00
2022-12-23T06:56:13.397Z,89.24
2022-12-23T06:57:16.707Z,89.24
2022-12-23T06:58:19.608Z,89.31
2022-12-23T06:59:21.785Z,90.02
2022-12-23T07:00:24.783Z,89.53
2022-12-23T07:01:26.863Z,89.39
2022-12-23T07:02:30.121Z,89.50
2022-12-23T07:03:32.224Z,89.52
2022-12-23T07:04:35.268Z,90.03
2022-12-23T07:05:37.921Z,89.15
2022-12-23T07:06:40.921Z,90.26
2022-12-23T07:07:42.843Z,90.23
2022-12-23T07:08:45.693Z,90.38
2022-12-23T07:09:47.637Z,90.40
2022-12-23T07:10:50.582Z,89.56
2022-12-23T07:11:52.668Z,90.36
2022-12-23T07:12:56.879Z,89.57
2022-12-23T07:13:59.461Z,89.33
2022-12-23T07:15:02.407Z,89.74
2022-12-23T07:16:06.921Z,89.81
2022-12-23T07:17:09.959Z,91.19
2022-12-23T07:18:11.812Z,90.06
2022-12-23T07:19:14.842Z,90.26
2022-12-23T07:20:17.036Z,90.50
2022-12-23T07:21:26.709Z,90.06
2022-12-23T07:22:30.709Z,90.72
2022-12-23T07:23:33.582Z,90.46
2022-12-23T07:24:35.456Z,89.59
2022-12-23T07:25:38.326Z,90.39
2022-12-23T07:26:40.338Z,89.07
2022-12-23T07:27:43.739Z,89.83
2022-12-23T07:28:48.589Z,89.98
2022-12-23T07:29:51.892Z,88.74
2022-12-23T07:30:53.715Z,88.80
2022-12-23T07:31:56.578Z,89.53
2022-12-23T07:32:58.641Z,90.23
2022-12-23T07:34:01.557Z,89.85
2022-12-23T07:35:03.758Z,89.65
2022-12-23T07:36:07.255Z,89.44
2022-12-23T07:37:10.155Z,89.79
2022-12-23T07:38:12.026Z,89.67
2022-12-23T07:39:14.949Z,89.83
2022-12-23T07:40:16.972Z,89.70
2022-12-23T07:41:20.125Z,89.85
2022-12-23T07:42:44.043Z,90.20
2022-12-23T07:43:44.884Z,91.19
2022-12-23T07:44:48.157Z,90.82
2022-12-23T07:45:57.389Z,91.08
2022-12-23T07:47:02.738Z,90.14
2022-12-23T07:48:04.854Z,90.31
2022-12-23T07:49:07.777Z,90.73
2022-12-23T07:50:10.092Z,91.18
2022-12-23T07:51:13.291Z,90.09
2022-12-23T07:52:16.097Z,90.51
2022-12-23T07:53:18.994Z,91.34
2022-12-23T07:54:20.992Z,90.72
2022-12-23T07:55:23.996Z,90.22
2022-12-23T07:56:26.924Z,90.40
2022-12-23T07:57:29.376Z,90.86
2022-12-23T07:58:32.383Z,91.42
2022-12-23T07:59:34.227Z,91.06
2022-12-23T08:00:38.460Z,91.28
2022-12-23T08:01:40.457Z,90.06
2022-12-23T08:02:44.193Z,90.23
2022-12-23T08:03:47.546Z,90.45
2022-12-23T08:04:49.580Z,90.43
2022-12-23T08:06:00.436Z,91.30
2022-12-23T08:07:03.527Z,90.49
2022-12-23T08:08:05.435Z,90.32
2022-12-23T08:09:09.417Z,90.54
2022-12-23T08:10:12.272Z,90.09
2022-12-23T08:11:17.826Z,90.93
2022-12-23T08:12:19.971Z,90.06
2022-12-23T08:13:22.948Z,91.28
2022-12-23T08:14:24.844Z,90.42
2022-12-23T08:15:27.752Z,91.14
2022-12-23T08:16:31.250Z,90.13
2022-12-23T08:17:34.229Z,90.25
2022-12-23T08:18:38.918Z,90.37
2022-12-23T08:19:41.847Z,90.81
2022-12-23T08:20:43.700Z,90.56
2022-12-23T08:21:46.621Z,91.31
2022-12-23T08:22:48.578Z,90.52
2022-12-23T08:23:52.905Z,90.99
2022-12-23T08:24:54.911Z,91.27
2022-12-23T08:26:02.845Z,90.80
2022-12-23T08:27:04.773Z,91.25
2022-12-23T08:28:07.653Z,91.42
2022-12-23T08:29:10.561Z,91.32
2022-12-23T08:30:13.841Z,90.92
2022-12-23T08:31:18.813Z,90.83
2022-12-23T08:32:22.270Z,91.32
2022-12-23T08:33:25.149Z,90.37
2022-12-23T08:34:27.115Z,90.74
2022-12-23T08:35:29.990Z,90.51
2022-12-23T08:36:35.106Z,90.74
2022-12-23T08:37:37.098Z,90.89
2022-12-23T08:38:40.293Z,90.48
2022-12-23T08:39:43.671Z,90.77
2022-12-23T08:40:46.632Z,90.76
2022-12-23T08:41:49.679Z,90.41
2022-12-23T08:42:51.585Z,91.36
2022-12-23T08:43:55.131Z,91.22
2022-12-23T08:44:58.018Z,88.65
2022-12-23T08:45:59.976Z,84.92
2022-12-23T08:47:02.991Z,83.37
2022-12-23T08:48:07.989Z,82.16
2022-12-23T08:49:10.461Z,83.27
2022-12-23T08:50:13.406Z,83.04
2022-12-23T08:51:17.318Z,83.14
2022-12-23T08:52:20.541Z,83.82
2022-12-23T08:53:22.527Z,85.05
2022-12-23T08:54:25.591Z,85.24
2022-12-23T08:55:27.466Z,86.30
2022-12-23T08:56:32.187Z,86.39
2022-12-23T08:57:34.710Z,86.56
2022-12-23T08:58:38.696Z,87.46
2022-12-23T08:59:41.561Z,87.08
2022-12-23T09:00:43.549Z,88.49
2022-12-23T09:01:46.820Z,87.68
2022-12-23T09:02:49.929Z,89.21
2022-12-23T09:03:54.132Z,89.14
2022-12-23T09:04:57.126Z,89.28
2022-12-23T09:05:59.051Z,90.05
2022-12-23T09:07:01.909Z,89.64
2022-12-23T09:08:04.094Z,89.06
2022-12-23T09:09:07.742Z,89.53
2022-12-23T09:10:10.283Z,90.32
2022-12-23T09:11:14.893Z,89.84
2022-12-23T09:12:17.984Z,89.56
2022-12-23T09:13:29.377Z,87.65
2022-12-23T09:14:35.819Z,87.98
2022-12-23T09:15:41.208Z,88.01
2022-12-23T09:16:44.096Z,87.88
2022-12-23T09:17:46.042Z,87.32
2022-12-23T09:18:49.161Z,87.61
2022-12-23T09:19:53.583Z,87.93
2022-12-23T09:20:58.418Z,89.16
2022-12-23T09:22:01.278Z,88.16
2022-12-23T09:23:03.964Z,89.24
2022-12-23T09:24:07.421Z,88.33
2022-12-23T09:25:10.914Z,88.61
2022-12-23T09:26:20.122Z,89.77
2022-12-23T09:27:22.099Z,90.02
2022-12-23T09:28:25.603Z,90.32
2022-12-23T09:29:28.987Z,90.46
2022-12-23T09:30:30.840Z,89.88
2022-12-23T09:31:37.298Z,90.00
2022-12-23T09:32:40.422Z,89.64
2022-12-23T09:33:42.768Z,90.30
2022-12-23T09:34:45.702Z,90.50
2022-12-23T09:35:49.149Z,89.75
2022-12-23T09:36:55.405Z,90.94
2022-12-23T09:37:57.584Z,90.76
2022-12-23T09:39:00.615Z,90.94
2022-12-23T09:40:03.247Z,91.31
2022-12-23T09:41:16.072Z,90.77
2022-12-23T09:42:39.873Z,91.50
2022-12-23T09:43:49.701Z,90.62
2022-12-23T09:45:12.502Z,91.47
2022-12-23T09:46:19.034Z,90.55
2022-12-23T09:47:25.097Z,90.62
2022-12-23T09:48:30.827Z,90.21
2022-12-23T09:49:35.379Z,91.38
2022-12-23T09:50:37.406Z,91.01
2022-12-23T09:51:41.785Z,90.71
2022-12-23T09:52:51.117Z,91.68
2022-12-23T09:54:00.073Z,91.68
2022-12-23T09:55:03.610Z,91.71
2022-12-23T09:56:16.813Z,92.02
2022-12-23T09:57:22.441Z,91.27
2022-12-23T09:58:31.202Z,91.62
2022-12-23T09:59:50.696Z,92.19
2022-12-23T10:01:08.376Z,91.53
2022-12-23T10:02:21.895Z,91.58
2022-12-23T10:03:30.679Z,92.03
2022-12-23T10:04:45.690Z,91.98
2022-12-23T10:06:00.721Z,91.31
2022-12-23T10:07:22.483Z,92.16
2022-12-23T10:08:31.201Z,91.26
2022-12-23T10:09:37.458Z,91.60
2022-12-23T10:10:43.773Z,91.45
2022-12-23T10:11:49.723Z,91.05
2022-12-23T10:12:54.928Z,92.06
2022-12-23T10:14:01.345Z,92.03
2022-12-23T10:15:12.747Z,92.13
2022-12-23T10:16:19.366Z,91.03
2022-12-23T10:17:28.990Z,92.07
2022-12-23T10:18:43.470Z,91.75
2022-12-23T10:19:48.043Z,91.58
2022-12-23T10:20:58.995Z,92.15
2022-12-23T10:22:04.362Z,91.22
2022-12-23T10:23:17.404Z,91.42
2022-12-23T10:24:23.386Z,91.04
2022-12-23T10:25:33.244Z,90.68
2022-12-23T10:26:42.584Z,91.16
2022-12-23T10:27:45.041Z,91.01
2022-12-23T10:28:48.133Z,91.55
2022-12-23T10:29:50.452Z,91.60
2022-12-23T10:31:38.087Z,91.24
2022-12-23T10:32:35.565Z,91.48
2022-12-23T10:33:46.824Z,91.82
2022-12-23T10:34:55.898Z,92.22
2022-12-23T10:36:05.215Z,91.50
2022-12-23T10:37:13.273Z,91.70
2022-12-23T10:38:36.807Z,92.15
2022-12-23T10:39:49.332Z,92.78
2022-12-23T10:40:59.433Z,92.44
2022-12-23T10:42:16.034Z,92.73
2022-12-23T10:43:27.744Z,92.77
2022-12-23T10:44:47.207Z,92.53
2022-12-23T10:45:59.389Z,93.06
2022-12-23T10:47:09.845Z,92.72
2022-12-23T10:48:26.060Z,92.03
2022-12-23T10:49:39.273Z,92.95
2022-12-23T10:50:55.362Z,92.22
2022-12-23T10:52:02.903Z,93.25
2022-12-23T10:53:10.275Z,92.32
2022-12-23T10:54:18.790Z,93.21
2022-12-23T10:55:29.809Z,92.94
2022-12-23T10:56:36.020Z,93.27
2022-12-23T10:57:38.647Z,92.41
2022-12-23T10:58:44.546Z,92.82
2022-12-23T10:59:48.022Z,92.59
2022-12-23T11:00:54.591Z,92.75
2022-12-23T11:02:04.992Z,93.38
2022-12-23T11:03:17.107Z,92.64
2022-12-23T11:04:28.188Z,93.48
2022-12-23T11:05:30.831Z,92.98
2022-12-23T11:06:38.574Z,92.43
2022-12-23T11:07:44.515Z,92.31
2022-12-23T11:08:48.314Z,93.01
2022-12-23T11:09:56.184Z,93.41
2022-12-23T11:11:00.469Z,93.51
2022-12-23T11:12:05.792Z,92.74
2022-12-23T11:13:08.869Z,93.61
2022-12-23T11:14:30.276Z,92.85
2022-12-23T11:15:35.356Z,92.97
2022-12-23T11:16:46.882Z,93.64
2022-12-23T11:17:59.781Z,92.74
2022-12-23T11:19:04.579Z,93.50
2022-12-23T11:20:13.108Z,93.21
2022-12-23T11:21:16.267Z,93.11
2022-12-23T11:22:24.017Z,93.18
2022-12-23T11:23:29.252Z,92.80
2022-12-23T11:24:37.962Z,93.64
2022-12-23T11:25:46.347Z,93.98
2022-12-23T11:26:51.543Z,93.23
2022-12-23T11:27:58.069Z,93.81
2022-12-23T11:29:06.752Z,93.30
2022-12-23T11:30:20.086Z,92.94
2022-12-23T11:31:28.324Z,93.19
2022-12-23T11:32:30.624Z,93.72
2022-12-23T11:33:35.655Z,93.27
2022-12-23T11:34:39.406Z,92.58
2022-12-23T11:35:41.448Z,92.65
2022-12-23T11:36:48.888Z,92.64
2022-12-23T11:37:53.586Z,93.34
2022-12-23T11:39:07.645Z,92.72
2022-12-23T11:40:23.679Z,93.18
2022-12-23T11:41:30.469Z,93.05
2022-12-23T11:42:35.604Z,93.10
2022-12-23T11:43:40.490Z,93.24
2022-12-23T11:44:47.536Z,92.96
2022-12-23T11:46:19.776Z,92.59
2022-12-23T11:47:29.306Z,92.51
2022-12-23T11:48:32.337Z,93.33
2022-12-23T11:49:35.179Z,92.54
2022-12-23T11:50:40.398Z,92.74
2022-12-23T11:51:42.707Z,92.74
2022-12-23T11:52:52.001Z,92.60
2022-12-23T11:54:01.375Z,92.69
2022-12-23T11:55:07.008Z,92.46
2022-12-23T11:56:11.671Z,93.12
2022-12-23T11:57:20.811Z,92.39
2022-12-23T11:58:24.218Z,93.08
2022-12-23T11:59:39.622Z,92.58
2022-12-23T12:00:55.286Z,93.16
2022-12-23T12:02:01.387Z,92.35
2022-12-23T12:03:06.820Z,93.11
2022-12-23T12:04:18.431Z,93.16
2022-12-23T12:05:26.528Z,92.88
2022-12-23T12:06:30.464Z,92.84
2022-12-23T12:07:34.309Z,93.03
2022-12-23T12:08:39.274Z,92.23
2022-12-23T12:09:45.790Z,92.60
2022-12-23T12:10:52.977Z,91.86
2022-12-23T12:12:03.675Z,93.24
2022-12-23T12:13:17.010Z,93.02
2022-12-23T12:14:24.107Z,92.03
2022-12-23T12:15:36.941Z,92.01
2022-12-23T12:16:56.984Z,92.42
2022-12-23T12:18:01.706Z,92.97
2022-12-23T12:19:10.421Z,93.02
2022-12-23T12:20:24.402Z,92.88
2022-12-23T12:21:31.838Z,92.66
2022-12-23T12:22:39.668Z,92.87
2022-12-23T12:23:47.065Z,92.67
2022-12-23T12:24:53.900Z,92.06
2022-12-23T12:25:59.611Z,93.10
2022-12-23T12:27:06.112Z,93.21
2022-12-23T12:28:14.799Z,92.69
2022-12-23T12:29:21.841Z,93.05
2022-12-23T12:30:25.043Z,92.79
2022-12-23T12:31:33.958Z,92.37
2022-12-23T12:32:47.859Z,92.62
2022-12-23T12:33:53.403Z,93.02
2022-12-23T12:35:00.960Z,93.23
2022-12-23T12:36:12.842Z,92.96
2022-12-23T12:37:23.609Z,92.50
2022-12-23T12:38:27.544Z,92.38
2022-12-23T12:39:35.010Z,93.08
2022-12-23T12:40:42.068Z,92.85
2022-12-23T12:41:50.981Z,92.77
2022-12-23T12:42:58.353Z,92.38
2022-12-23T12:44:14.791Z,93.68
2022-12-23T12:45:20.762Z,93.40
2022-12-23T12:46:31.670Z,93.23
2022-12-23T12:47:53.709Z,93.29
2022-12-23T12:49:04.807Z,92.74
2022-12-23T12:50:13.050Z,93.41
2022-12-23T12:51:23.833Z,92.52
2022-12-23T12:52:27.585Z,93.45
2022-12-23T12:53:33.335Z,93.39
2022-12-23T12:54:41.993Z,92.48
2022-12-23T12:55:50.895Z,92.60
2022-12-23T12:56:55.375Z,93.08
2022-12-23T12:57:57.442Z,92.93
2022-12-23T12:59:00.493Z,92.83
2022-12-23T13:00:06.937Z,93.32
2022-12-23T13:01:24.975Z,92.61
2022-12-23T13:03:03.860Z,93.30
2022-12-23T13:04:41.262Z,92.83
2022-12-23T13:06:03.097Z,92.99
2022-12-23T13:07:14.691Z,93.22
2022-12-23T13:08:30.705Z,93.32
2022-12-23T13:09:46.364Z,93.38
2022-12-23T13:10:53.526Z,93.82
2022-12-23T13:12:04.474Z,93.16
2022-12-23T13:13:18.877Z,92.94
2022-12-23T13:14:34.713Z,92.92
2022-12-23T13:15:47.906Z,92.94
2022-12-23T13:17:01.575Z,93.64
2022-12-23T13:18:15.917Z,92.96
2022-12-23T13:19:26.054Z,93.58
2022-12-23T13:20:37.653Z,93.03
2022-12-23T13:21:47.839Z,93.73
2022-12-23T13:23:06.308Z,93.59
2022-12-23T13:24:25.504Z,93.00
2022-12-23T13:25:30.190Z,93.25
2022-12-23T13:26:38.856Z,94.30
2022-12-23T13:27:47.580Z,94.32
2022-12-23T13:28:59.055Z,93.45
2022-12-23T13:30:06.812Z,94.10
2022-12-23T13:31:21.358Z,93.33
2022-12-23T13:32:38.331Z,93.16
2022-12-23T13:33:55.179Z,93.54
2022-12-23T13:35:04.114Z,93.68
2022-12-23T13:36:20.891Z,93.77
2022-12-23T13:37:32.533Z,93.24
2022-12-23T13:38:50.780Z,93.96
2022-12-23T13:39:59.238Z,93.68
2022-12-23T13:41:06.584Z,93.76
2022-12-23T13:42:13.335Z,93.44
2022-12-23T13:43:19.592Z,93.15
2022-12-23T13:44:23.362Z,93.67
2022-12-23T13:45:32.329Z,94.40
2022-12-23T13:46:45.173Z,93.54
2022-12-23T13:48:04.395Z,93.30
2022-12-23T13:49:13.017Z,93.27
2022-12-23T13:50:24.874Z,94.37
2022-12-23T13:51:35.985Z,94.11
2022-12-23T13:52:58.161Z,94.37
2022-12-23T13:54:08.525Z,93.74
2022-12-23T13:55:22.094Z,94.19
2022-12-23T13:56:32.781Z,94.27
2022-12-23T13:57:49.093Z,93.75
2022-12-23T13:58:51.787Z,93.81
2022-12-23T14:00:05.463Z,93.81
2022-12-23T14:01:32.734Z,93.67
2022-12-23T14:02:50.975Z,94.09
2022-12-23T14:03:53.926Z,93.35
2022-12-23T14:05:02.732Z,94.37
2022-12-23T14:06:22.383Z,93.35
2022-12-23T14:07:24.549Z,93.66
2022-12-23T14:08:33.971Z,93.28
2022-12-23T14:09:38.480Z,93.89
2022-12-23T14:10:51.922Z,94.24
2022-12-23T14:12:01.140Z,93.29
2022-12-23T14:13:09.605Z,94.36
2022-12-23T14:14:21.174Z,93.39
2022-12-23T14:15:39.349Z,94.14
2022-12-23T14:16:57.007Z,94.23
2022-12-23T14:18:11.343Z,93.64
2022-12-23T14:19:47.234Z,94.01
2022-12-23T14:20:52.408Z,94.12
2022-12-23T14:22:07.387Z,93.93
2022-12-23T14:23:30.669Z,94.83